createdAt,value
2023-04-03T00:01:10.983Z,94367.66
2023-04-03T00:03:42.902Z,94366.63
2023-04-03T00:06:12.815Z,94360.56
2023-04-03T00:08:40.454Z,94365.03
2023-04-03T00:11:07.333Z,94361.59
2023-04-03T00:13:34.221Z,94358.69
2023-04-03T00:16:04.804Z,94344.91
2023-04-03T00:18:35.152Z,94347.06
2023-04-03T00:21:01.937Z,94348.13
2023-04-03T00:23:31.328Z,94341.22
2023-04-03T00:25:58.924Z,94341.22
2023-04-03T00:28:27.896Z,94344.91
2023-04-03T00:30:55.692Z,94341.22
2023-04-03T00:33:26.540Z,94346.50
2023-04-03T00:35:56.769Z,94340.66
2023-04-03T00:38:23.461Z,94348.59
2023-04-03T00:40:50.781Z,94344.91
2023-04-03T00:43:27.520Z,94348.59
2023-04-03T00:45:57.861Z,94355.97
2023-04-03T00:48:29.412Z,94350.69
2023-04-03T00:50:58.525Z,94343.22
2023-04-03T00:53:33.577Z,94342.41
2023-04-03T00:56:04.611Z,94352.75
2023-04-03T00:59:05.191Z,94358.03
2023-04-03T01:01:32.028Z,94359.88
2023-04-03T01:04:04.290Z,94364.13
2023-04-03T01:06:37.638Z,94354.84
2023-04-03T01:09:04.813Z,94353.19
2023-04-03T01:11:31.750Z,94349.53
2023-04-03T01:14:02.765Z,94359.66
2023-04-03T01:16:32.017Z,94358.59
2023-04-03T01:18:59.314Z,94359.16
2023-04-03T01:21:49.229Z,94353.06
2023-04-03T01:24:39.615Z,94350.19
2023-04-03T01:27:09.443Z,94351.25
2023-04-03T01:29:38.349Z,94351.81
2023-04-03T01:32:08.034Z,94357.09
2023-04-03T01:34:34.716Z,94358.69
2023-04-03T01:37:01.295Z,94350.75
2023-04-03T01:39:30.347Z,94356.88
2023-04-03T01:42:00.414Z,94355.00
2023-04-03T01:44:29.804Z,94355.81
2023-04-03T01:46:58.644Z,94353.41
2023-04-03T01:49:25.338Z,94353.41
2023-04-03T01:51:51.997Z,94359.50
2023-04-03T01:57:01.587Z,94360.31
2023-04-03T01:59:29.076Z,94361.13
2023-04-03T02:02:00.483Z,94359.25
2023-04-03T02:04:27.288Z,94363.97
2023-04-03T02:06:56.224Z,94357.91
2023-04-03T02:09:22.919Z,94359.50
2023-04-03T02:11:51.957Z,94365.59
2023-04-03T02:14:22.907Z,94364.81
2023-04-03T02:16:54.239Z,94366.06
2023-04-03T02:19:21.180Z,94369.28
2023-04-03T02:21:47.980Z,94366.06
2023-04-03T02:24:19.807Z,94365.59
2023-04-03T02:26:46.497Z,94348.13
2023-04-03T02:29:13.134Z,94351.31
2023-04-03T02:31:39.805Z,94341.22
2023-04-03T02:34:06.844Z,94348.13
2023-04-03T02:36:33.507Z,94348.13
2023-04-03T02:39:04.809Z,94341.22
2023-04-03T02:41:36.142Z,94343.09
2023-04-03T02:44:03.865Z,94350.19
2023-04-03T02:46:33.506Z,94339.63
2023-04-03T02:49:02.237Z,94342.81
2023-04-03T02:51:28.959Z,94338.59
2023-04-03T02:53:58.399Z,94335.94
2023-04-03T02:56:27.882Z,94330.66
2023-04-03T02:58:56.742Z,94333.28
2023-04-03T03:01:28.218Z,94334.34
2023-04-03T03:03:57.561Z,94329.84
2023-04-03T03:06:26.658Z,94326.97
2023-04-03T03:08:53.365Z,94318.47
2023-04-03T03:11:22.170Z,94323.75
2023-04-03T03:13:49.343Z,94322.16
2023-04-03T03:16:18.358Z,94318.47
2023-04-03T03:18:46.600Z,94313.19
2023-04-03T03:21:15.891Z,94320.31
2023-04-03T03:23:42.654Z,94314.78
2023-04-03T03:26:12.187Z,94328.00
2023-04-03T03:28:39.171Z,94318.47
2023-04-03T03:31:08.563Z,94318.47
2023-04-03T03:33:35.471Z,94322.72
2023-04-03T03:36:04.340Z,94317.41
2023-04-03T03:38:35.735Z,94328.81
2023-04-03T03:41:02.463Z,94326.63
2023-04-03T03:43:29.169Z,94330.66
2023-04-03T03:45:58.103Z,94328.00
2023-04-03T03:48:24.760Z,94313.19
2023-04-03T03:50:51.423Z,94317.69
2023-04-03T03:53:20.240Z,94320.31
2023-04-03T03:55:47.348Z,94327.44
2023-04-03T03:58:13.986Z,94321.34
2023-04-03T04:00:40.665Z,94320.53
2023-04-03T04:03:09.582Z,94329.53
2023-04-03T04:05:38.842Z,94328.47
2023-04-03T04:08:06.026Z,94324.22
2023-04-03T04:10:34.882Z,94320.53
2023-04-03T04:13:06.526Z,94320.53
2023-04-03T04:15:35.701Z,94331.59
2023-04-03T04:18:05.180Z,94334.81
2023-04-03T04:20:31.887Z,94338.50
2023-04-03T04:22:59.324Z,94336.63
2023-04-03T04:25:35.964Z,94346.16
2023-04-03T04:28:09.359Z,94338.50
2023-04-03T04:30:38.642Z,94343.78
2023-04-03T04:33:09.898Z,94330.56
2023-04-03T04:35:36.755Z,94347.47
2023-04-03T04:38:09.842Z,94342.63
2023-04-03T04:40:41.452Z,94356.44
2023-04-03T04:43:11.782Z,94349.53
2023-04-03T04:45:43.186Z,94349.53
2023-04-03T04:48:13.370Z,94354.84
2023-04-03T04:50:42.233Z,94356.44
2023-04-03T04:53:11.914Z,94358.50
2023-04-03T04:55:40.862Z,94360.34
2023-04-03T04:58:09.663Z,94358.50
2023-04-03T05:00:38.776Z,94366.41
2023-04-03T05:03:07.641Z,94369.88
2023-04-03T05:05:36.753Z,94370.09
2023-04-03T05:08:09.375Z,94377.25
2023-04-03T05:10:36.113Z,94393.91
2023-04-03T05:13:03.044Z,94397.59
2023-04-03T05:15:32.639Z,94391.25
2023-04-03T05:17:59.407Z,94400.78
2023-04-03T05:20:28.590Z,94393.91
2023-04-03T05:23:00.747Z,94400.22
2023-04-03T05:25:32.850Z,94399.19
2023-04-03T05:27:59.624Z,94387.81
2023-04-03T05:30:28.945Z,94386.22
2023-04-03T05:33:00.276Z,94394.94
2023-04-03T05:35:26.942Z,94388.06
2023-04-03T05:37:59.316Z,94387.00
2023-04-03T05:40:28.268Z,94378.03
2023-04-03T05:42:57.272Z,94381.50
2023-04-03T05:45:26.184Z,94385.19
2023-04-03T05:47:55.224Z,94379.06
2023-04-03T05:50:24.561Z,94376.44
2023-04-03T05:52:53.964Z,94372.75
2023-04-03T05:55:22.769Z,94373.56
2023-04-03T05:57:49.499Z,94365.84
2023-04-03T06:00:16.728Z,94366.41
2023-04-03T06:02:48.974Z,94371.97
2023-04-03T06:05:18.398Z,94372.75
2023-04-03T06:07:45.786Z,94367.16
2023-04-03T06:10:16.004Z,94365.22
2023-04-03T06:12:44.986Z,94361.63
2023-04-03T06:15:12.949Z,94362.28
2023-04-03T06:17:44.440Z,94353.06
2023-04-03T06:20:14.457Z,94353.59
2023-04-03T06:22:43.212Z,94352.47
2023-04-03T06:25:14.619Z,94357.34
2023-04-03T06:27:45.985Z,94356.72
2023-04-03T06:30:14.829Z,94367.41
2023-04-03T06:32:47.467Z,94367.09
2023-04-03T06:35:19.566Z,94378.03
2023-04-03T06:37:48.592Z,94383.38
2023-04-03T06:40:19.807Z,94384.16
2023-04-03T06:42:49.766Z,94387.09
2023-04-03T06:45:21.281Z,94388.31
2023-04-03T06:47:48.062Z,94368.59
2023-04-03T06:50:17.934Z,94377.03
2023-04-03T06:55:36.298Z,94387.28
2023-04-03T06:58:06.040Z,94383.06
2023-04-03T07:03:11.113Z,94381.69
2023-04-03T07:05:45.502Z,94377.16
2023-04-03T07:10:49.930Z,94368.97
2023-04-03T07:13:18.981Z,94358.78
2023-04-03T07:15:50.897Z,94361.13
2023-04-03T07:18:34.856Z,94359.84
2023-04-03T07:21:11.394Z,94358.91
2023-04-03T07:23:43.282Z,94356.81
2023-04-03T07:26:14.938Z,94351.25
2023-04-03T07:31:21.823Z,94360.22
2023-04-03T07:33:48.504Z,94353.28
2023-04-03T07:36:17.801Z,94347.38
2023-04-03T07:38:46.694Z,94354.38
2023-04-03T07:41:18.615Z,94341.94
2023-04-03T07:43:50.695Z,94341.66
2023-04-03T07:46:22.297Z,94338.13
2023-04-03T07:48:49.100Z,94334.59
2023-04-03T07:51:21.779Z,94333.16
2023-04-03T07:53:51.504Z,94331.88
2023-04-03T07:56:21.876Z,94336.41
2023-04-03T07:58:48.561Z,94328.56
2023-04-03T08:01:15.301Z,94324.69
2023-04-03T08:03:44.439Z,94323.72
2023-04-03T08:06:16.987Z,94327.75
2023-04-03T08:08:48.319Z,94326.84
2023-04-03T08:11:19.164Z,94330.75
2023-04-03T08:13:49.948Z,94322.38
2023-04-03T08:16:22.373Z,94315.63
2023-04-03T08:21:33.099Z,94312.44
2023-04-03T08:24:02.735Z,94311.84
2023-04-03T08:26:40.576Z,94307.63
2023-04-03T08:29:07.544Z,94315.63
2023-04-03T08:31:40.166Z,94320.44
2023-04-03T08:34:08.631Z,94310.25
2023-04-03T08:36:35.489Z,94315.88
2023-04-03T08:39:05.145Z,94299.56
2023-04-03T08:41:45.848Z,94295.44
2023-04-03T08:44:23.536Z,94298.19
2023-04-03T08:47:26.266Z,94295.31
2023-04-03T08:50:00.606Z,94298.28
2023-04-03T08:52:43.131Z,94300.47
2023-04-03T08:55:28.971Z,94292.88
2023-04-03T08:58:20.477Z,94283.28
2023-04-03T09:00:57.609Z,94281.19
2023-04-03T09:03:26.706Z,94275.44
2023-04-03T09:06:12.501Z,94271.31
2023-04-03T09:09:13.053Z,94269.81
2023-04-03T09:12:11.515Z,94266.69
2023-04-03T09:17:40.516Z,94261.53
2023-04-03T09:20:46.035Z,94255.19
2023-04-03T09:23:19.292Z,94250.56
2023-04-03T09:25:48.217Z,94250.56
2023-04-03T09:28:17.188Z,94247.22
2023-04-03T09:30:46.198Z,94248.03
2023-04-03T09:33:12.902Z,94246.41
2023-04-03T09:35:48.182Z,94236.41
2023-04-03T09:38:23.248Z,94240.66
2023-04-03T09:40:54.126Z,94242.50
2023-04-03T09:43:33.839Z,94238.03
2023-04-03T09:46:40.681Z,94230.88
2023-04-03T09:49:12.773Z,94224.31
2023-04-03T09:51:41.839Z,94221.13
2023-04-03T09:54:31.670Z,94216.41
2023-04-03T09:57:00.596Z,94220.41
2023-04-03T09:59:31.999Z,94215.91
2023-04-03T10:02:03.990Z,94213.28
2023-04-03T10:05:06.202Z,94213.28
2023-04-03T10:07:44.402Z,94213.28
2023-04-03T10:10:16.079Z,94220.16
2023-04-03T10:12:45.885Z,94217.09
2023-04-03T10:15:21.111Z,94218.69
2023-04-03T10:17:57.019Z,94215.84
2023-04-03T10:20:43.789Z,94213.66
2023-04-03T10:23:21.047Z,94213.56
2023-04-03T10:26:25.401Z,94206.19
2023-04-03T10:29:11.086Z,94199.50
2023-04-03T10:31:59.148Z,94196.72
2023-04-03T10:35:02.374Z,94191.19
2023-04-03T10:37:38.461Z,94192.31
2023-04-03T10:40:27.155Z,94186.88
2023-04-03T10:43:26.851Z,94185.13
2023-04-03T10:46:16.227Z,94175.03
2023-04-03T10:49:01.979Z,94177.91
2023-04-03T10:51:41.427Z,94177.66
2023-04-03T10:54:17.198Z,94170.53
2023-04-03T10:57:04.460Z,94169.75
2023-04-03T10:59:47.812Z,94173.50
2023-04-03T11:02:30.236Z,94179.84
2023-04-03T11:05:27.629Z,94180.72
2023-04-03T11:07:54.477Z,94188.63
2023-04-03T11:10:39.993Z,94194.22
2023-04-03T11:13:14.147Z,94196.50
2023-04-03T11:15:44.678Z,94197.91
2023-04-03T11:18:17.161Z,94207.97
2023-04-03T11:20:48.458Z,94196.13
2023-04-03T11:23:46.045Z,94187.75
2023-04-03T11:26:25.991Z,94195.69
2023-04-03T11:31:46.027Z,94192.91
2023-04-03T11:34:20.384Z,94186.72
2023-04-03T11:36:48.590Z,94192.00
2023-04-03T11:39:25.151Z,94192.78
2023-04-03T11:42:10.699Z,94185.56
2023-04-03T11:44:40.595Z,94189.94
2023-04-03T11:49:52.110Z,94189.66
2023-04-03T11:52:43.758Z,94187.47
2023-04-03T11:55:31.492Z,94199.56
2023-04-03T11:58:04.116Z,94195.41
2023-04-03T12:00:56.132Z,94191.56
2023-04-03T12:03:30.072Z,94189.03
2023-04-03T12:06:06.738Z,94193.38
2023-04-03T12:08:48.407Z,94207.16
2023-04-03T12:11:17.756Z,94201.88
2023-04-03T12:13:51.172Z,94205.06
2023-04-03T12:16:47.020Z,94196.09
2023-04-03T12:19:42.391Z,94187.94
2023-04-03T12:22:13.935Z,94190.34
2023-04-03T12:24:47.970Z,94188.25
2023-04-03T12:27:35.268Z,94184.81
2023-04-03T12:30:05.072Z,94182.97
2023-04-03T12:32:41.466Z,94185.63
2023-04-03T12:35:37.435Z,94174.47
2023-04-03T12:38:31.084Z,94168.16
2023-04-03T12:41:19.266Z,94172.09
2023-04-03T12:43:57.117Z,94159.66
2023-04-03T12:46:32.098Z,94148.53
2023-04-03T12:49:01.492Z,94153.34
2023-04-03T12:51:42.278Z,94148.06
2023-04-03T12:54:27.684Z,94143.81
2023-04-03T12:57:28.737Z,94140.38
2023-04-03T12:59:58.518Z,94146.44
2023-04-03T13:02:28.760Z,94148.53
2023-04-03T13:05:07.493Z,94141.66
2023-04-03T13:07:35.964Z,94147.50
2023-04-03T13:10:22.930Z,94142.22
2023-04-03T13:12:53.468Z,94146.44
2023-04-03T13:15:24.525Z,94139.56
2023-04-03T13:17:53.497Z,94139.56
2023-04-03T13:20:37.101Z,94144.84
2023-04-03T13:23:07.382Z,94144.84
2023-04-03T13:25:37.627Z,94139.56
2023-04-03T13:28:13.183Z,94129.81
2023-04-03T13:30:41.555Z,94124.53
2023-04-03T13:33:24.001Z,94134.28
2023-04-03T13:36:06.129Z,94133.22
2023-04-03T13:38:34.771Z,94127.38
2023-04-03T13:43:41.946Z,94127.38
2023-04-03T13:46:12.009Z,94127.38
2023-04-03T13:48:41.092Z,94128.44
2023-04-03T13:51:16.955Z,94124.75
2023-04-03T13:53:46.368Z,94129.00
2023-04-03T13:56:24.602Z,94114.66
2023-04-03T13:59:02.219Z,94121.00
2023-04-03T14:01:39.830Z,94117.53
2023-04-03T14:04:45.261Z,94118.81
2023-04-03T14:07:17.883Z,94113.53
2023-04-03T14:09:47.174Z,94106.41
2023-04-03T14:12:38.216Z,94112.50
2023-04-03T14:15:06.975Z,94112.66
2023-04-03T14:17:34.573Z,94111.06
2023-04-03T14:20:02.656Z,94108.34
2023-04-03T14:22:31.532Z,94106.56
2023-04-03T14:25:03.076Z,94106.22
2023-04-03T14:27:39.062Z,94106.47
2023-04-03T14:30:10.673Z,94110.72
2023-04-03T14:32:39.869Z,94104.97
2023-04-03T14:35:08.309Z,94110.34
2023-04-03T14:37:40.252Z,94116.88
2023-04-03T14:40:09.288Z,94111.97
2023-04-03T14:42:42.195Z,94102.66
2023-04-03T14:45:11.262Z,94101.41
2023-04-03T14:47:47.848Z,94098.00
2023-04-03T14:50:24.977Z,94099.25
2023-04-03T14:52:57.405Z,94097.31
2023-04-03T14:55:26.364Z,94092.16
2023-04-03T14:57:53.492Z,94089.19
2023-04-03T15:00:23.556Z,94079.31
2023-04-03T15:02:52.523Z,94076.78
2023-04-03T15:05:25.006Z,94084.00
2023-04-03T15:07:56.349Z,94077.50
2023-04-03T15:10:30.449Z,94079.78
2023-04-03T15:13:01.921Z,94080.91
2023-04-03T15:15:31.947Z,94073.09
2023-04-03T15:17:59.287Z,94072.66
2023-04-03T15:20:27.441Z,94059.00
2023-04-03T15:22:54.422Z,94066.22
2023-04-03T15:25:21.190Z,94063.88
2023-04-03T15:27:50.191Z,94063.88
2023-04-03T15:30:19.691Z,94065.81
2023-04-03T15:32:48.837Z,94063.88
2023-04-03T15:35:20.296Z,94057.31
2023-04-03T15:37:49.283Z,94051.00
2023-04-03T15:40:18.574Z,94044.44
2023-04-03T15:42:51.327Z,94041.56
2023-04-03T15:45:25.044Z,94034.22
2023-04-03T15:47:54.167Z,94028.44
2023-04-03T15:50:25.022Z,94025.34
2023-04-03T15:52:55.378Z,94029.69
2023-04-03T15:55:25.991Z,94034.25
2023-04-03T15:57:53.484Z,94034.59
2023-04-03T16:00:21.288Z,94026.97
2023-04-03T16:02:48.323Z,94028.34
2023-04-03T16:05:18.353Z,94029.16
2023-04-03T16:07:49.737Z,94021.00
2023-04-03T16:10:22.204Z,94021.31
2023-04-03T16:12:48.988Z,94019.25
2023-04-03T16:15:18.096Z,94015.56
2023-04-03T16:17:49.606Z,94011.88
2023-04-03T16:20:22.617Z,94001.06
2023-04-03T16:22:52.208Z,93994.75
2023-04-03T16:25:22.074Z,93997.16
2023-04-03T16:27:48.988Z,93999.59
2023-04-03T16:30:17.890Z,93994.06
2023-04-03T16:32:45.068Z,93996.72
2023-04-03T16:35:12.020Z,93980.06
2023-04-03T16:37:39.917Z,93977.97
2023-04-03T16:40:07.793Z,93972.69
2023-04-03T16:42:39.198Z,93965.31
2023-04-03T16:45:10.191Z,93942.56
2023-04-03T16:47:43.037Z,93933.63
2023-04-03T16:50:10.031Z,93924.66
2023-04-03T16:52:39.243Z,93918.56
2023-04-03T16:55:07.593Z,93907.19
2023-04-03T16:57:36.454Z,93913.06
2023-04-03T17:00:09.371Z,93911.19
2023-04-03T17:02:36.279Z,93905.91
2023-04-03T17:05:03.156Z,93903.03
2023-04-03T17:07:29.878Z,93893.53
2023-04-03T17:10:01.197Z,93891.66
2023-04-03T17:12:30.617Z,93899.38
2023-04-03T17:15:01.981Z,93892.97
2023-04-03T17:17:31.820Z,93889.84
2023-04-03T17:19:58.681Z,93890.88
2023-04-03T17:22:27.560Z,93891.94
2023-04-03T17:24:59.128Z,93897.75
2023-04-03T17:27:28.469Z,93890.88
2023-04-03T17:29:57.331Z,93890.88
2023-04-03T17:32:26.494Z,93889.03
2023-04-03T17:34:56.325Z,93888.97
2023-04-03T17:37:25.174Z,93877.50
2023-04-03T17:39:56.608Z,93866.88
2023-04-03T17:42:23.320Z,93871.66
2023-04-03T17:44:52.193Z,93872.94
2023-04-03T17:47:19.346Z,93868.91
2023-04-03T17:49:48.218Z,93864.63
2023-04-03T17:52:14.919Z,93868.06
2023-04-03T17:54:43.828Z,93869.09
2023-04-03T17:57:12.933Z,93869.34
2023-04-03T17:59:41.768Z,93863.25
2023-04-03T18:02:10.602Z,93863.50
2023-04-03T18:04:39.841Z,93859.84
2023-04-03T18:07:10.175Z,93862.31
2023-04-03T18:09:39.611Z,93859.97
2023-04-03T18:12:09.416Z,93858.69
2023-04-03T18:14:36.502Z,93857.41
2023-04-03T18:17:05.932Z,93846.84
2023-04-03T18:19:32.867Z,93846.84
2023-04-03T18:22:05.330Z,93850.88
2023-04-03T18:24:34.865Z,93846.38
2023-04-03T18:27:14.548Z,93832.38
2023-04-03T18:29:45.390Z,93846.38
2023-04-03T18:32:13.530Z,93843.75
2023-04-03T18:34:40.402Z,93845.34
2023-04-03T18:37:12.621Z,93837.41
2023-04-03T18:39:41.464Z,93832.13
2023-04-03T18:42:22.262Z,93832.13
2023-04-03T18:44:53.727Z,93832.13
2023-04-03T18:47:25.108Z,93824.19
2023-04-03T18:49:51.755Z,93819.47
2023-04-03T18:52:19.022Z,93818.69
2023-04-03T18:54:48.009Z,93815.22
2023-04-03T18:57:16.973Z,93825.00
2023-04-03T18:59:43.860Z,93819.47
2023-04-03T19:02:11.165Z,93811.81
2023-04-03T19:04:40.019Z,93804.44
2023-04-03T19:07:12.116Z,93808.13
2023-04-03T19:09:39.579Z,93798.84
2023-04-03T19:12:09.395Z,93780.91
2023-04-03T19:14:36.057Z,93786.19
2023-04-03T19:17:04.170Z,93779.31
2023-04-03T19:19:36.186Z,93778.16
2023-04-03T19:22:05.042Z,93779.75
2023-04-03T19:24:33.980Z,93777.69
2023-04-03T19:27:04.374Z,93780.34
2023-04-03T19:29:31.079Z,93776.91
2023-04-03T19:31:57.768Z,93784.59
2023-04-03T19:34:26.682Z,93777.69
2023-04-03T19:36:55.817Z,93784.59
2023-04-03T19:39:24.657Z,93767.13
2023-04-03T19:41:53.949Z,93762.66
2023-04-03T19:44:20.760Z,93757.63
2023-04-03T19:46:51.053Z,93752.09
2023-04-03T19:49:18.902Z,93762.66
2023-04-03T19:51:53.679Z,93761.06
2023-04-03T19:54:20.967Z,93749.69
2023-04-03T19:56:49.825Z,93758.16
2023-04-03T19:59:18.724Z,93760.25
2023-04-03T20:01:48.168Z,93759.44
2023-04-03T20:04:20.016Z,93754.97
2023-04-03T20:06:46.806Z,93740.72
2023-04-03T20:09:13.485Z,93753.94
2023-04-03T20:11:43.086Z,93746.00
2023-04-03T20:14:12.403Z,93759.22
2023-04-03T20:16:43.748Z,93751.28
2023-04-03T20:19:13.570Z,93752.88
2023-04-03T20:21:40.462Z,93746.00
2023-04-03T20:24:12.059Z,93747.59
2023-04-03T20:26:43.896Z,93736.25
2023-04-03T20:29:10.511Z,93730.97
2023-04-03T20:31:41.887Z,93730.97
2023-04-03T20:34:09.286Z,93725.69
2023-04-03T20:36:38.758Z,93719.59
2023-04-03T20:39:07.784Z,93721.19
2023-04-03T20:41:37.265Z,93727.28
2023-04-03T20:44:04.596Z,93721.19
2023-04-03T20:46:51.190Z,93727.28
2023-04-03T20:49:19.351Z,93717.50
2023-04-03T20:51:49.055Z,93714.31
2023-04-03T20:54:18.492Z,93715.91
2023-04-03T20:56:50.029Z,93722.78
2023-04-03T20:59:17.116Z,93733.34
2023-04-03T21:01:45.922Z,93743.91
2023-04-03T21:04:15.902Z,93736.00
2023-04-03T21:07:20.118Z,93727.28
2023-04-03T21:10:24.704Z,93730.72
2023-04-03T21:13:29.207Z,93726.47
2023-04-03T21:15:56.071Z,93720.69
2023-04-03T21:18:35.507Z,93706.94
2023-04-03T21:21:02.919Z,93702.69
2023-04-03T21:23:30.585Z,93695.59
2023-04-03T21:25:58.110Z,93686.63
2023-04-03T21:28:25.162Z,93683.72
2023-04-03T21:30:59.515Z,93682.94
2023-04-03T21:33:28.705Z,93675.25
2023-04-03T21:35:58.687Z,93677.09
2023-04-03T21:38:32.366Z,93663.09
2023-04-03T21:41:02.244Z,93657.03
2023-04-03T21:43:33.914Z,93653.00
2023-04-03T21:46:02.939Z,93648.81
2023-04-03T21:48:32.804Z,93645.13
2023-04-03T21:51:08.147Z,93650.19
2023-04-03T21:53:35.592Z,93654.41
2023-04-03T21:56:06.874Z,93646.72
2023-04-03T21:58:35.548Z,93640.41
2023-04-03T22:01:11.893Z,93635.13
2023-04-03T22:03:41.718Z,93629.59
2023-04-03T22:06:34.206Z,93618.25
2023-04-03T22:09:03.309Z,93632.00
2023-04-03T22:11:32.343Z,93625.91
2023-04-03T22:14:01.204Z,93633.59
2023-04-03T22:16:28.109Z,93631.19
2023-04-03T22:18:56.939Z,93625.69
2023-04-03T22:21:27.201Z,93627.66
2023-04-03T22:23:54.740Z,93632.50
2023-04-03T22:26:23.720Z,93630.53
2023-04-03T22:28:50.435Z,93631.63
2023-04-03T22:31:20.666Z,93622.41
2023-04-03T22:33:49.491Z,93616.91
2023-04-03T22:36:16.430Z,93614.84
2023-04-03T22:38:47.298Z,93605.34
2023-04-03T22:41:13.963Z,93589.50
2023-04-03T22:43:43.299Z,93566.28
2023-04-03T22:46:12.096Z,93562.56
2023-04-03T22:48:41.103Z,93589.00
2023-04-03T22:51:08.522Z,93597.47
2023-04-03T22:53:38.641Z,93593.78
2023-04-03T22:56:12.012Z,93590.09
2023-04-03T22:58:42.653Z,93586.41
2023-04-03T23:01:13.177Z,93579.53
2023-04-03T23:03:43.253Z,93584.31
2023-04-03T23:06:13.045Z,93580.66
2023-04-03T23:08:42.032Z,93589.59
2023-04-03T23:11:11.513Z,93583.84
2023-04-03T23:13:38.396Z,93584.66
2023-04-03T23:16:05.422Z,93584.38
2023-04-03T23:18:32.933Z,93576.47
2023-04-03T23:21:00.109Z,93574.38
2023-04-03T23:23:32.069Z,93577.59
2023-04-03T23:26:04.697Z,93576.00
2023-04-03T23:28:31.517Z,93570.69
2023-04-03T23:31:02.455Z,93564.38
2023-04-03T23:33:30.710Z,93563.31
2023-04-03T23:35:59.822Z,93569.38
2023-04-03T23:38:29.626Z,93564.91
2023-04-03T23:40:58.560Z,93561.72
2023-04-03T23:43:32.480Z,93551.69
2023-04-03T23:46:05.307Z,93542.97
2023-04-03T23:48:37.082Z,93554.66
2023-04-03T23:51:06.155Z,93538.22
2023-04-03T23:53:32.765Z,93534.81
2023-04-03T23:56:01.703Z,93531.13
2023-04-03T23:58:30.459Z,93531.13
